CA-0503 weather

Linden
Linden, AB, Alberta, Canada

Public forecast

Using degrees Celsius for public forecast. Weather courtesy of forecast.io.

METAR (pilot weather report)

Closest report is Calgary International Airport, 35.2 nm (65.3 km) SW. Retrieved 2019/07/24 06:00 UTC (33 minutes ago):

CYYC 240600Z 16015KT 15SM FEW057CB FEW070 BKN170 23/09 A2987 RMK CB1AC1AC6 CB TR AC TR OCNL LTGIC NW SLP094 DENSITY ALT 5500FT

TAF (pilot weather forecast)

Closest forecast is Calgary International Airport, 35.2 nm (65.3 km) SW. Retrieved 2019/07/24 06:45 UTC (0 seconds ago):

TAF TAF CYYC 240542Z 2406/2506 15012KT P6SM FEW050 SCT120 BKN220 BECMG 2407/2409 VRB03KT FM241200 20012KT P6SM FEW080 SCT160 BECMG 2415/2417 24018G28KT FM242000 29022G32KT P6SM SCT080 TEMPO 2420/2424 P6SM -SHRA BKN080 FM250000 29022G32KT P6SM FEW080 BECMG 2503/2505 29012G22KT RMK NXT FCST BY 240900Z